Time;durP1;ratioP1;P1;durP2;ratioP2;P2;SDS_P1;SDS_P2;PMS_P1;PMS_P2;Temp;Humidity;BMP_temperature;BMP_pressure;BME280_temperature;BME280_humidity;BME280_pressure;Samples;Min_cycle;Max_cycle;Signal;HPM_P1;HPM_P2
2022/05/11 00:00:59;;;;;;;;;;;;;;;20.46;42.89;100477.59;4950370;28;129022;-63
2022/05/11 00:03:25;;;;;;;;;;;;;;;20.45;43.07;100481.47;4958530;28;98402;-62
2022/05/11 00:05:52;;;;;;;;;;;;;;;20.43;43.08;100478.25;4950136;28;98560;-62
2022/05/11 00:08:18;;;;;;;;;;;;;;;20.41;43.10;100477.81;4943704;28;98863;-63
2022/05/11 00:10:44;;;;;;;;;;;;;;;20.38;43.04;100473.00;4944652;28;97892;-63
2022/05/11 00:13:10;;;;;;;;;;;;;;;20.36;43.19;100472.53;4947933;28;117456;-62
2022/05/11 00:15:36;;;;;;;;;;;;;;;20.34;43.13;100469.31;4961852;28;128051;-62
2022/05/11 00:18:02;;;;;;;;;;;;;;;20.32;43.05;100471.59;4961342;28;98037;-62
2022/05/11 00:20:28;;;;;;;;;;;;;;;20.29;43.22;100472.25;4946920;28;125571;-63
2022/05/11 00:22:54;;;;;;;;;;;;;;;20.26;43.28;100462.78;4946264;28;98501;-62
2022/05/11 00:25:20;;;;;;;;;;;;;;;20.25;43.44;100463.13;4960670;28;126614;-62
2022/05/11 00:27:46;;;;;;;;;;;;;;;20.22;43.30;100459.09;4963375;28;98580;-63
2022/05/11 00:30:12;;;;;;;;;;;;;;;20.19;43.36;100459.75;4962837;28;100219;-62
2022/05/11 00:32:38;;;;;;;;;;;;;;;20.17;43.49;100453.84;4961854;28;118500;-62
2022/05/11 00:35:05;;;;;;;;;;;;;;;20.16;43.35;100459.63;4941736;28;124842;-63
2022/05/11 00:37:31;;;;;;;;;;;;;;;20.14;43.64;100459.16;4944336;28;98044;-62
2022/05/11 00:39:58;;;;;;;;;;;;;;;20.11;43.49;100449.66;4942154;28;118346;-63
2022/05/11 00:42:24;;;;;;;;;;;;;;;20.10;43.63;100454.34;4943797;28;97775;-62
2022/05/11 00:44:50;;;;;;;;;;;;;;;20.09;43.44;100454.69;4954003;28;98282;-62
2022/05/11 00:47:33;;;;;;;;;;;;;;;20.08;43.65;100455.78;4962779;28;128240;-62
2022/05/11 00:50:10;;;;;;;;;;;;;;;20.07;43.68;100459.69;4961207;28;98101;-62
2022/05/11 00:52:53;;;;;;;;;;;;;;;20.05;43.73;100449.06;4964457;28;98104;-62
2022/05/11 00:55:24;;;;;;;;;;;;;;;20.04;43.67;100457.59;4958149;28;98351;-63
2022/05/11 00:57:57;;;;;;;;;;;;;;;20.02;43.89;100452.47;4942260;28;123812;-63
2022/05/11 01:00:24;;;;;;;;;;;;;;;20.01;43.74;100453.59;4968680;28;99298;-64
2022/05/11 01:02:53;;;;;;;;;;;;;;;19.99;43.81;100444.91;4956878;28;98077;-63
2022/05/11 01:05:19;;;;;;;;;;;;;;;19.99;43.56;100450.38;4955608;28;99425;-63
2022/05/11 01:07:45;;;;;;;;;;;;;;;19.99;43.77;100444.13;4942252;28;125692;-63
2022/05/11 01:10:11;;;;;;;;;;;;;;;19.98;43.89;100445.25;4953750;28;127073;-63
2022/05/11 01:12:43;;;;;;;;;;;;;;;19.94;43.97;100434.16;4960482;28;99356;-63
2022/05/11 01:15:13;;;;;;;;;;;;;;;19.94;43.94;100442.38;4924827;28;118122;-63
2022/05/11 01:17:39;;;;;;;;;;;;;;;19.92;43.79;100441.09;4975692;28;124599;-63
2022/05/11 01:20:12;;;;;;;;;;;;;;;19.92;44.03;100432.88;4949235;28;97876;-63
2022/05/11 01:22:47;;;;;;;;;;;;;;;19.89;43.94;100433.56;4940766;28;107989;-64
2022/05/11 01:25:13;;;;;;;;;;;;;;;19.89;43.77;100433.56;4952868;28;122031;-63
2022/05/11 01:27:43;;;;;;;;;;;;;;;19.88;43.86;100429.22;4960396;28;98891;-63
2022/05/11 01:30:16;;;;;;;;;;;;;;;19.86;43.95;100427.63;4948842;28;97829;-63
2022/05/11 01:32:46;;;;;;;;;;;;;;;19.84;44.01;100427.13;4942000;28;113372;-63
2022/05/11 01:35:50;;;;;;;;;;;;;;;19.84;44.01;100426.34;4954922;28;99109;-63
2022/05/11 01:38:34;;;;;;;;;;;;;;;19.82;44.09;100426.69;4961376;28;99017;-63
2022/05/11 01:41:00;;;;;;;;;;;;;;;19.81;44.17;100424.28;4959195;28;97837;-63
2022/05/11 01:43:28;;;;;;;;;;;;;;;19.81;43.97;100418.81;4962291;28;99986;-63
2022/05/11 01:45:54;;;;;;;;;;;;;;;19.80;44.06;100419.94;4961720;28;98232;-63
2022/05/11 01:48:21;;;;;;;;;;;;;;;19.79;44.11;100421.06;4962226;28;115695;-63
2022/05/11 01:50:46;;;;;;;;;;;;;;;19.78;44.24;100417.53;4960253;28;98424;-63
2022/05/11 01:53:13;;;;;;;;;;;;;;;19.77;43.90;100407.72;4960853;28;117204;-63
2022/05/11 01:55:39;;;;;;;;;;;;;;;19.76;43.91;100408.84;4956351;28;98118;-64
2022/05/11 01:58:06;;;;;;;;;;;;;;;19.76;44.04;100411.56;4941557;28;125915;-63
2022/05/11 02:00:33;;;;;;;;;;;;;;;19.76;44.08;100414.31;4944109;28;98578;-63
2022/05/11 02:02:59;;;;;;;;;;;;;;;19.76;44.17;100408.84;4960587;28;97956;-64
2022/05/11 02:08:10;;;;;;;;;;;;;;;19.77;44.13;100415.13;4957784;28;98100;-63
2022/05/11 02:10:36;;;;;;;;;;;;;;;19.76;43.98;100416.25;4958873;28;97977;-63
2022/05/11 02:13:02;;;;;;;;;;;;;;;19.76;43.99;100416.25;4962164;28;97955;-63
2022/05/11 02:15:27;;;;;;;;;;;;;;;19.76;44.16;100413.50;4961121;28;99921;-63
2022/05/11 02:17:53;;;;;;;;;;;;;;;19.75;44.17;100404.50;4959007;28;114596;-63
2022/05/11 02:20:19;;;;;;;;;;;;;;;19.75;44.09;100409.97;4955716;28;110607;-63
2022/05/11 02:22:46;;;;;;;;;;;;;;;19.75;44.21;100415.44;4941499;28;113976;-63
2022/05/11 02:25:13;;;;;;;;;;;;;;;19.74;44.14;100404.84;4955076;28;98452;-63
2022/05/11 02:27:39;;;;;;;;;;;;;;;19.74;44.42;100407.59;4959332;28;98680;-63
2022/05/11 02:30:09;;;;;;;;;;;;;;;19.73;44.33;100416.91;4959202;28;97830;-63
2022/05/11 02:32:35;;;;;;;;;;;;;;;19.73;44.30;100412.25;4949175;28;97889;-63
2022/05/11 02:35:13;;;;;;;;;;;;;;;19.72;44.43;100407.09;4940569;28;125892;-63
2022/05/11 02:37:53;;;;;;;;;;;;;;;19.71;44.50;100416.44;4942587;28;98282;-63
2022/05/11 02:40:21;;;;;;;;;;;;;;;19.71;44.40;100416.44;4942039;28;98237;-63
2022/05/11 02:42:47;;;;;;;;;;;;;;;19.70;44.58;100412.13;4943318;28;97856;-63
2022/05/11 02:45:14;;;;;;;;;;;;;;;19.69;44.53;100419.53;4939976;28;128431;-63
2022/05/11 02:47:40;;;;;;;;;;;;;;;19.67;44.71;100421.78;4941438;28;99395;-63
2022/05/11 02:50:07;;;;;;;;;;;;;;;19.64;44.83;100421.63;4942278;28;98395;-63
2022/05/11 02:52:33;;;;;;;;;;;;;;;19.59;45.05;100425.31;4944080;28;97700;-63
2022/05/11 02:54:59;;;;;;;;;;;;;;;19.54;45.14;100425.50;4959127;28;98332;-63
2022/05/11 02:57:25;;;;;;;;;;;;;;;19.49;45.24;100421.03;4959612;28;127844;-64
2022/05/11 02:59:51;;;;;;;;;;;;;;;19.45;45.49;100419.25;4949811;28;98914;-63
2022/05/11 03:02:20;;;;;;;;;;;;;;;19.39;45.74;100415.91;4950684;28;118220;-63
2022/05/11 03:04:47;;;;;;;;;;;;;;;19.34;45.84;100419.63;4941485;28;98317;-63
2022/05/11 03:07:13;;;;;;;;;;;;;;;19.29;45.97;100422.53;4960165;28;115650;-63
2022/05/11 03:09:39;;;;;;;;;;;;;;;19.24;46.26;100416.44;4958786;28;128434;-63
2022/05/11 03:12:06;;;;;;;;;;;;;;;19.17;46.53;100422.41;4960386;28;117445;-63
2022/05/11 03:14:32;;;;;;;;;;;;;;;19.12;46.94;100425.31;4941783;28;128216;-63
2022/05/11 03:16:57;;;;;;;;;;;;;;;19.06;46.88;100429.34;4940216;28;126815;-63
2022/05/11 03:19:24;;;;;;;;;;;;;;;18.99;47.18;100418.13;4940471;28;126629;-63
2022/05/11 03:21:51;;;;;;;;;;;;;;;18.94;47.51;100415.56;4941861;28;97847;-63
2022/05/11 03:24:17;;;;;;;;;;;;;;;18.89;47.52;100424.72;4954831;28;98003;-63
2022/05/11 03:26:43;;;;;;;;;;;;;;;18.85;47.63;100423.75;4959429;28;125500;-63
2022/05/11 03:29:09;;;;;;;;;;;;;;;18.81;47.94;100422.81;4958981;28;127074;-63
2022/05/11 03:31:35;;;;;;;;;;;;;;;18.80;48.01;100424.75;4959759;28;117682;-63
2022/05/11 03:36:47;;;;;;;;;;;;;;;18.78;48.25;100428.91;4936576;28;98007;-63
2022/05/11 03:39:16;;;;;;;;;;;;;;;18.76;48.32;100426.50;4940998;28;99021;-63
2022/05/11 03:41:43;;;;;;;;;;;;;;;18.75;48.43;100426.84;4941888;28;116844;-63
2022/05/11 03:44:09;;;;;;;;;;;;;;;18.74;48.38;100422.50;4956620;28;98358;-63
2022/05/11 03:46:35;;;;;;;;;;;;;;;18.73;48.38;100429.09;4963005;28;127173;-63
2022/05/11 03:49:01;;;;;;;;;;;;;;;18.72;48.47;100425.56;4963309;28;104460;-63
2022/05/11 03:51:27;;;;;;;;;;;;;;;18.73;48.73;100427.16;4945688;28;97969;-63
2022/05/11 03:53:52;;;;;;;;;;;;;;;18.71;48.58;100429.41;4958500;28;98415;-63
2022/05/11 03:56:18;;;;;;;;;;;;;;;18.71;48.83;100420.44;4944751;28;127171;-63
2022/05/11 03:58:45;;;;;;;;;;;;;;;18.71;49.00;100426.69;4944756;28;98453;-63
2022/05/11 04:01:12;;;;;;;;;;;;;;;18.71;48.98;100432.16;4963353;28;98030;-63
2022/05/11 04:03:38;;;;;;;;;;;;;;;18.72;48.97;100425.56;4962498;28;98136;-63
2022/05/11 04:06:04;;;;;;;;;;;;;;;18.75;48.94;100435.84;4952028;28;99200;-63
2022/05/11 04:08:30;;;;;;;;;;;;;;;18.79;48.88;100439.53;4943357;28;126487;-63
2022/05/11 04:10:56;;;;;;;;;;;;;;;18.82;49.11;100436.16;4943823;28;98266;-63
2022/05/11 04:13:22;;;;;;;;;;;;;;;18.89;48.93;100435.66;4948035;28;126929;-65
2022/05/11 04:15:50;;;;;;;;;;;;;;;18.94;48.80;100440.94;4962121;28;128441;-63
2022/05/11 04:18:16;;;;;;;;;;;;;;;18.98;48.79;100438.34;4964189;28;98355;-63
2022/05/11 04:20:42;;;;;;;;;;;;;;;19.04;48.78;100439.81;4962833;28;106561;-63
2022/05/11 04:23:08;;;;;;;;;;;;;;;19.09;48.92;100420.50;4959331;28;128203;-63
2022/05/11 04:25:34;;;;;;;;;;;;;;;19.15;48.83;100426.59;4942606;28;120603;-63
2022/05/11 04:28:02;;;;;;;;;;;;;;;19.19;48.60;100433.03;4943601;28;98332;-63
2022/05/11 04:30:31;;;;;;;;;;;;;;;19.25;48.82;100431.72;4943879;28;97926;-63
2022/05/11 04:32:59;;;;;;;;;;;;;;;19.28;48.62;100431.06;4945263;28;98408;-63
2022/05/11 04:35:31;;;;;;;;;;;;;;;19.30;49.06;100431.56;4963212;27;98145;-63
2022/05/11 04:38:01;;;;;;;;;;;;;;;19.30;49.03;100432.34;4963151;28;98472;-63
2022/05/11 04:40:28;;;;;;;;;;;;;;;19.31;49.12;100433.94;4945182;28;118308;-63
2022/05/11 04:42:54;;;;;;;;;;;;;;;19.32;49.28;100437.47;4942041;28;121859;-63
2022/05/11 04:45:19;;;;;;;;;;;;;;;19.33;49.28;100441.81;4962159;28;126050;-63
2022/05/11 04:47:45;;;;;;;;;;;;;;;19.36;49.05;100435.69;4958951;28;126811;-63
2022/05/11 04:50:12;;;;;;;;;;;;;;;19.44;48.87;100436.78;4943209;28;97844;-63
2022/05/11 04:52:38;;;;;;;;;;;;;;;19.51;48.96;100442.56;4943071;28;98772;-63
2022/05/11 04:55:05;;;;;;;;;;;;;;;19.60;48.79;100443.31;4959749;28;126670;-63
2022/05/11 04:57:31;;;;;;;;;;;;;;;19.70;48.56;100450.41;4962875;28;98462;-64
2022/05/11 04:59:57;;;;;;;;;;;;;;;19.76;48.65;100446.31;4942826;28;98008;-63
2022/05/11 05:02:24;;;;;;;;;;;;;;;19.83;48.60;100441.94;4952821;28;128142;-63
2022/05/11 05:04:50;;;;;;;;;;;;;;;19.94;48.38;100445.13;4960086;28;118189;-63
2022/05/11 05:07:16;;;;;;;;;;;;;;;20.02;48.24;100449.72;4943049;28;98162;-63
2022/05/11 05:09:43;;;;;;;;;;;;;;;20.14;48.09;100456.44;4940824;28;118106;-63
2022/05/11 05:12:09;;;;;;;;;;;;;;;20.27;47.79;100447.94;4941064;28;97814;-63
2022/05/11 05:14:35;;;;;;;;;;;;;;;20.47;47.67;100451.03;4941643;28;125968;-63
2022/05/11 05:17:02;;;;;;;;;;;;;;;20.65;47.50;100459.94;4942277;28;126493;-63
2022/05/11 05:19:29;;;;;;;;;;;;;;;20.80;47.26;100453.84;4944314;28;98159;-63
2022/05/11 05:21:54;;;;;;;;;;;;;;;20.90;47.15;100464.38;4944027;28;97839;-63
2022/05/11 05:24:20;;;;;;;;;;;;;;;20.89;47.24;100449.09;4961386;28;128352;-63
2022/05/11 05:26:46;;;;;;;;;;;;;;;20.92;47.19;100455.84;4961679;28;126651;-63
2022/05/11 05:31:57;;;;;;;;;;;;;;;21.05;46.87;100460.22;4953661;28;98159;-63
2022/05/11 05:34:22;;;;;;;;;;;;;;;21.15;46.79;100465.28;4962026;28;125973;-63
2022/05/11 05:36:48;;;;;;;;;;;;;;;21.26;46.52;100460.97;4961366;28;126742;-63
2022/05/11 05:39:14;;;;;;;;;;;;;;;21.43;46.44;100460.00;4952572;28;118317;-63
2022/05/11 05:41:41;;;;;;;;;;;;;;;21.64;46.02;100459.09;4958834;28;126535;-63
2022/05/11 05:44:10;;;;;;;;;;;;;;;21.81;45.88;100458.88;4960513;28;98582;-63
2022/05/11 05:46:36;;;;;;;;;;;;;;;22.01;45.62;100457.16;4961232;28;125593;-63
2022/05/11 05:49:02;;;;;;;;;;;;;;;22.12;45.53;100462.97;4963319;28;98077;-63
2022/05/11 05:51:29;;;;;;;;;;;;;;;22.29;45.22;100462.75;4946522;28;101762;-63
2022/05/11 05:53:55;;;;;;;;;;;;;;;22.58;44.94;100460.84;4957746;28;98562;-63
2022/05/11 05:56:21;;;;;;;;;;;;;;;22.87;44.47;100459.69;4947886;28;97947;-63
2022/05/11 05:58:47;;;;;;;;;;;;;;;23.14;44.30;100463.59;4951332;28;97861;-63
2022/05/11 06:01:13;;;;;;;;;;;;;;;23.28;43.93;100467.53;4955804;28;113602;-63
2022/05/11 06:03:40;;;;;;;;;;;;;;;23.28;44.18;100459.28;4953790;28;98879;-63
2022/05/11 06:06:07;;;;;;;;;;;;;;;23.21;44.24;100461.84;4951459;28;98251;-64
2022/05/11 06:08:36;;;;;;;;;;;;;;;23.18;44.20;100457.03;4962873;28;98075;-63
2022/05/11 06:11:02;;;;;;;;;;;;;;;23.10;43.70;100454.47;4954964;28;99097;-63
2022/05/11 06:13:28;;;;;;;;;;;;;;;23.00;44.10;100453.03;4941272;28;98788;-62
2022/05/11 06:15:54;;;;;;;;;;;;;;;22.96;44.02;100458.44;4940436;28;126086;-62
2022/05/11 06:18:21;;;;;;;;;;;;;;;22.97;44.07;100454.53;4943226;28;97942;-63
2022/05/11 06:20:51;;;;;;;;;;;;;;;23.02;43.63;100450.72;4946560;28;98968;-63
2022/05/11 06:23:20;;;;;;;;;;;;;;;23.09;43.59;100450.13;4961887;28;99244;-63
2022/05/11 06:25:49;;;;;;;;;;;;;;;23.29;43.29;100451.84;4961724;28;98220;-63
2022/05/11 06:28:15;;;;;;;;;;;;;;;23.50;43.01;100448.81;4961883;28;97840;-63
2022/05/11 06:30:40;;;;;;;;;;;;;;;23.70;43.02;100452.50;4945327;28;126993;-64
2022/05/11 06:33:06;;;;;;;;;;;;;;;23.99;42.60;100460.28;4940456;28;126265;-63
2022/05/11 06:35:32;;;;;;;;;;;;;;;24.30;42.19;100464.09;4940428;28;123389;-63
2022/05/11 06:38:02;;;;;;;;;;;;;;;24.59;41.78;100470.25;4941535;28;117333;-63
2022/05/11 06:40:28;;;;;;;;;;;;;;;24.92;41.39;100472.50;4946982;28;98360;-63
2022/05/11 06:42:54;;;;;;;;;;;;;;;25.18;41.40;100480.09;4954526;28;124042;-64
2022/05/11 06:45:22;;;;;;;;;;;;;;;25.19;41.42;100484.44;4958687;28;128386;-63
2022/05/11 06:47:49;;;;;;;;;;;;;;;25.15;41.23;100478.88;4941544;28;97767;-63
2022/05/11 06:50:15;;;;;;;;;;;;;;;25.10;41.02;100473.66;4941281;28;98620;-63
2022/05/11 06:52:41;;;;;;;;;;;;;;;25.04;41.22;100482.56;4942639;28;126527;-63
2022/05/11 07:00:37;;;;;;;;;;;;;;;24.94;41.01;100472.94;4941232;28;99786;-64
2022/05/11 07:03:04;;;;;;;;;;;;;;;24.97;41.08;100469.44;4943767;28;98791;-63
2022/05/11 07:05:30;;;;;;;;;;;;;;;24.98;40.78;100471.81;4954423;28;98600;-63
2022/05/11 07:07:56;;;;;;;;;;;;;;;24.93;40.67;100468.59;4956109;28;116253;-64
2022/05/11 07:10:22;;;;;;;;;;;;;;;24.93;40.73;100466.63;4941335;28;128544;-63
2022/05/11 07:12:48;;;;;;;;;;;;;;;24.96;40.68;100459.59;4921290;28;128458;-63
2022/05/11 07:15:19;;;;;;;;;;;;;;;25.08;40.45;100458.63;4956906;28;100030;-64
2022/05/11 07:17:52;;;;;;;;;;;;;;;25.39;39.91;100463.16;4958776;28;101255;-63
2022/05/11 07:20:21;;;;;;;;;;;;;;;25.67;39.59;100449.84;4945557;28;99432;-63
2022/05/11 07:22:47;;;;;;;;;;;;;;;25.98;39.44;100453.50;4940699;28;98583;-63
2022/05/11 07:25:15;;;;;;;;;;;;;;;26.26;39.25;100441.25;4939909;28;121522;-63
2022/05/11 07:27:42;;;;;;;;;;;;;;;26.44;39.21;100443.06;4940776;28;97745;-63
2022/05/11 07:30:09;;;;;;;;;;;;;;;26.44;39.17;100436.75;4953090;28;98642;-63
2022/05/11 07:32:35;;;;;;;;;;;;;;;26.34;39.04;100434.66;4960605;28;98812;-62
2022/05/11 07:35:01;;;;;;;;;;;;;;;26.32;39.15;100443.28;4959278;28;129547;-63
2022/05/11 07:37:27;;;;;;;;;;;;;;;26.49;38.77;100441.16;4959357;28;101036;-63
2022/05/11 07:39:55;;;;;;;;;;;;;;;27.11;38.14;100430.44;4949422;28;98419;-63
2022/05/11 07:42:21;;;;;;;;;;;;;;;27.86;37.21;100428.31;4949708;28;98849;-63
2022/05/11 07:44:47;;;;;;;;;;;;;;;28.88;35.61;100415.31;4960325;28;98192;-63
2022/05/11 07:47:13;;;;;;;;;;;;;;;29.92;35.26;100424.50;4942020;28;117245;-63
2022/05/11 07:49:39;;;;;;;;;;;;;;;30.55;34.52;100419.97;4947415;28;98162;-63
2022/05/11 07:52:06;;;;;;;;;;;;;;;31.33;33.91;100417.94;4960906;28;106586;-63
2022/05/11 07:54:32;;;;;;;;;;;;;;;32.08;32.82;100419.22;4951703;28;126374;-63
2022/05/11 07:59:59;;;;;;;;;;;;;;;33.47;32.14;100420.13;4951297;28;98321;-63
2022/05/11 08:02:29;;;;;;;;;;;;;;;32.89;32.92;100414.59;4952283;28;98209;-62
2022/05/11 08:04:57;;;;;;;;;;;;;;;31.96;33.22;100407.41;4947547;28;98677;-62
2022/05/11 08:07:25;;;;;;;;;;;;;;;31.54;33.24;100409.38;4941025;28;98495;-62
2022/05/11 08:10:01;;;;;;;;;;;;;;;32.14;32.68;100409.19;4947948;28;97841;-62
2022/05/11 08:12:27;;;;;;;;;;;;;;;33.36;31.59;100409.09;4955676;28;98418;-62
2022/05/11 08:14:53;;;;;;;;;;;;;;;33.66;31.52;100413.00;4940282;28;98450;-62
2022/05/11 08:17:28;;;;;;;;;;;;;;;33.88;29.82;100405.03;4940738;28;97716;-62
2022/05/11 08:19:54;;;;;;;;;;;;;;;34.23;29.94;100406.34;4939561;28;99238;-62
2022/05/11 08:22:20;;;;;;;;;;;;;;;34.12;30.32;100403.00;4941167;28;106080;-62
2022/05/11 08:24:47;;;;;;;;;;;;;;;36.11;28.96;100408.63;4939104;28;98566;-62
2022/05/11 08:27:16;;;;;;;;;;;;;;;37.57;27.13;100408.94;4940559;28;113063;-62
2022/05/11 08:35:11;;;;;;;;;;;;;;;39.76;25.48;100392.78;4960889;28;97992;-62
2022/05/11 08:37:37;;;;;;;;;;;;;;;40.44;25.46;100390.50;4963224;28;115854;-63
2022/05/11 08:40:05;;;;;;;;;;;;;;;41.45;24.45;100390.00;4952593;28;128082;-62
2022/05/11 08:42:31;;;;;;;;;;;;;;;42.19;24.37;100392.19;4950975;28;99264;-63
2022/05/11 08:45:02;;;;;;;;;;;;;;;42.65;24.15;100386.81;4945134;28;98752;-63
2022/05/11 08:47:31;;;;;;;;;;;;;;;43.34;23.32;100390.09;4962261;28;97933;-63
2022/05/11 08:50:04;;;;;;;;;;;;;;;43.73;22.95;100380.50;4952356;28;99168;-63
2022/05/11 08:53:04;;;;;;;;;;;;;;;44.31;22.71;100381.34;4943293;28;98551;-63
2022/05/11 08:55:48;;;;;;;;;;;;;;;44.49;22.27;100372.47;4936570;28;98502;-64
2022/05/11 08:58:27;;;;;;;;;;;;;;;44.71;21.63;100365.38;4952052;28;97773;-63
2022/05/11 09:00:54;;;;;;;;;;;;;;;44.90;21.00;100354.41;4956522;28;98678;-63
2022/05/11 09:03:53;;;;;;;;;;;;;;;44.95;20.99;100353.63;4940896;28;99133;-63
2022/05/11 09:06:24;;;;;;;;;;;;;;;45.09;20.98;100352.72;4936823;28;98085;-63
2022/05/11 09:08:50;;;;;;;;;;;;;;;45.31;21.10;100349.91;4944249;28;97725;-63
2022/05/11 09:11:23;;;;;;;;;;;;;;;44.76;20.98;100345.53;4958741;28;99192;-63
2022/05/11 09:13:49;;;;;;;;;;;;;;;43.95;20.68;100338.19;4962511;28;99100;-63
2022/05/11 09:16:20;;;;;;;;;;;;;;;43.35;21.10;100331.31;4947948;28;125945;-63
2022/05/11 09:18:46;;;;;;;;;;;;;;;42.84;20.14;100336.38;4943863;28;98244;-63
2022/05/11 09:21:34;;;;;;;;;;;;;;;42.74;20.71;100328.47;4959280;28;98910;-63
2022/05/11 09:24:04;;;;;;;;;;;;;;;43.02;20.69;100323.97;4958768;28;97899;-63
2022/05/11 09:26:36;;;;;;;;;;;;;;;43.60;20.62;100329.84;4942196;28;98553;-63
2022/05/11 09:29:22;;;;;;;;;;;;;;;44.15;19.79;100325.19;4942934;28;97755;-63
2022/05/11 09:31:50;;;;;;;;;;;;;;;44.88;19.26;100320.78;4943059;28;98409;-63
2022/05/11 09:34:35;;;;;;;;;;;;;;;45.53;18.93;100317.19;4941093;28;99581;-63
2022/05/11 09:37:03;;;;;;;;;;;;;;;45.87;18.86;100312.34;4948383;28;97966;-63
2022/05/11 09:39:30;;;;;;;;;;;;;;;46.40;18.48;100326.81;4959654;28;98747;-63
2022/05/11 09:42:15;;;;;;;;;;;;;;;46.59;18.22;100307.91;4941702;28;97823;-64
2022/05/11 09:44:45;;;;;;;;;;;;;;;46.82;17.68;100294.34;4974781;28;98285;-64
2022/05/11 09:47:25;;;;;;;;;;;;;;;47.38;17.68;100296.94;4961455;28;98236;-63
2022/05/11 09:49:51;;;;;;;;;;;;;;;47.72;17.23;100291.03;4957625;28;97860;-63
2022/05/11 09:52:29;;;;;;;;;;;;;;;47.89;17.23;100294.50;4957524;28;116211;-63
2022/05/11 09:54:55;;;;;;;;;;;;;;;48.10;17.12;100292.00;4941263;28;123995;-63
2022/05/11 09:57:26;;;;;;;;;;;;;;;45.82;17.59;100276.09;4940374;28;126476;-63
2022/05/11 09:59:52;;;;;;;;;;;;;;;43.52;19.44;100263.50;4946705;28;98204;-62
2022/05/11 10:02:31;;;;;;;;;;;;;;;43.89;19.15;100271.31;4952155;28;99918;-63
2022/05/11 10:05:01;;;;;;;;;;;;;;;42.89;19.33;100264.81;4966068;28;98962;-62
2022/05/11 10:07:28;;;;;;;;;;;;;;;44.60;18.32;100263.81;4942840;28;98144;-63
2022/05/11 10:10:00;;;;;;;;;;;;;;;44.76;18.26;100256.69;4946610;28;99253;-63
2022/05/11 10:12:27;;;;;;;;;;;;;;;43.37;18.95;100250.19;4940407;28;98334;-63
2022/05/11 10:23:16;;;;;;;;;;;;;;;44.93;18.11;100236.88;4952845;28;98116;-63
2022/05/11 10:25:43;;;;;;;;;;;;;;;45.47;17.32;100236.75;4940983;28;98375;-63
2022/05/11 10:28:30;;;;;;;;;;;;;;;45.76;17.52;100233.41;4956430;28;98121;-62
2022/05/11 10:31:02;;;;;;;;;;;;;;;45.75;17.57;100242.47;4970015;28;98219;-62
2022/05/11 10:33:40;;;;;;;;;;;;;;;46.19;17.50;100240.88;4941443;28;98213;-63
2022/05/11 10:36:30;;;;;;;;;;;;;;;46.42;17.07;100233.88;4960533;28;102089;-62
2022/05/11 10:39:24;;;;;;;;;;;;;;;46.30;17.41;100226.66;4961155;28;98040;-63
2022/05/11 10:42:01;;;;;;;;;;;;;;;44.83;18.35;100214.34;4925542;28;103805;-62
2022/05/11 10:44:48;;;;;;;;;;;;;;;45.24;17.63;100218.88;4945572;28;126433;-62
2022/05/11 10:47:26;;;;;;;;;;;;;;;45.03;17.69;100212.59;4944491;28;99002;-62
2022/05/11 10:49:58;;;;;;;;;;;;;;;45.23;18.10;100211.63;4957871;28;99615;-62
2022/05/11 10:52:24;;;;;;;;;;;;;;;43.62;19.05;100199.63;4940254;28;105624;-62
2022/05/11 10:55:06;;;;;;;;;;;;;;;43.13;18.67;100201.50;4940853;28;98796;-62
2022/05/11 10:57:56;;;;;;;;;;;;;;;43.51;18.48;100202.38;4955837;28;127471;-63
2022/05/11 11:00:23;;;;;;;;;;;;;;;41.16;20.20;100192.09;4951017;28;98090;-62
2022/05/11 11:03:11;;;;;;;;;;;;;;;42.48;19.30;100198.88;4960972;28;97851;-62
2022/05/11 11:05:40;;;;;;;;;;;;;;;41.89;19.69;100194.16;4951744;28;98813;-62
2022/05/11 11:08:26;;;;;;;;;;;;;;;41.62;19.51;100198.09;4943502;28;102904;-62
2022/05/11 11:10:54;;;;;;;;;;;;;;;42.18;19.39;100201.78;4958251;28;127189;-62
2022/05/11 11:13:40;;;;;;;;;;;;;;;42.37;19.37;100178.94;4957658;28;97728;-62
2022/05/11 11:16:07;;;;;;;;;;;;;;;42.37;19.48;100168.38;4958427;28;125974;-62
2022/05/11 11:18:38;;;;;;;;;;;;;;;42.32;19.07;100174.72;4958713;28;127439;-62
2022/05/11 11:21:04;;;;;;;;;;;;;;;42.21;19.43;100163.25;4940478;28;123261;-62
2022/05/11 11:23:32;;;;;;;;;;;;;;;41.81;19.53;100186.53;4928660;28;97916;-62
2022/05/11 11:26:03;;;;;;;;;;;;;;;41.74;19.30;100173.59;4960715;28;99080;-62
2022/05/11 11:28:31;;;;;;;;;;;;;;;41.78;19.58;100170.53;4961995;28;98374;-62
2022/05/11 11:31:00;;;;;;;;;;;;;;;41.45;19.83;100163.84;4958461;28;98269;-62
2022/05/11 11:33:49;;;;;;;;;;;;;;;41.77;19.53;100175.41;4961116;28;97847;-62
2022/05/11 11:36:18;;;;;;;;;;;;;;;41.82;19.45;100157.81;4940226;28;120367;-62
2022/05/11 11:38:47;;;;;;;;;;;;;;;41.74;19.64;100164.31;4940956;28;98554;-62
2022/05/11 11:41:19;;;;;;;;;;;;;;;41.03;20.30;100163.31;4940579;28;97910;-62
2022/05/11 11:43:57;;;;;;;;;;;;;;;41.18;19.96;100159.25;4943782;28;98247;-62
2022/05/11 11:46:35;;;;;;;;;;;;;;;40.19;20.88;100145.41;4958284;28;97989;-62
2022/05/11 11:49:07;;;;;;;;;;;;;;;39.75;20.99;100146.72;4960071;28;98472;-62
2022/05/11 11:51:52;;;;;;;;;;;;;;;39.89;20.96;100144.44;4960013;28;97895;-62
2022/05/11 11:54:36;;;;;;;;;;;;;;;38.86;21.44;100142.31;4960713;28;98135;-62
2022/05/11 11:57:06;;;;;;;;;;;;;;;39.39;21.04;100147.59;4965010;28;98732;-62
2022/05/11 11:59:36;;;;;;;;;;;;;;;39.45;21.42;100144.91;4953840;28;122917;-62
2022/05/11 12:02:16;;;;;;;;;;;;;;;39.53;20.95;100144.09;4940703;28;97927;-63
2022/05/11 12:04:47;;;;;;;;;;;;;;;38.74;22.06;100137.59;4958214;28;97946;-62
2022/05/11 12:15:45;;;;;;;;;;;;;;;37.22;22.04;100110.38;4942106;28;97782;-62
2022/05/11 12:18:22;;;;;;;;;;;;;;;36.73;22.48;100118.56;4944672;28;98327;-62
2022/05/11 12:20:48;;;;;;;;;;;;;;;36.45;22.34;100115.50;4943767;28;98507;-62
2022/05/11 12:23:46;;;;;;;;;;;;;;;36.36;22.46;100110.59;4943295;28;126825;-62
2022/05/11 12:26:19;;;;;;;;;;;;;;;36.84;22.55;100110.53;4943063;28;110210;-62
2022/05/11 12:28:45;;;;;;;;;;;;;;;36.92;22.51;100091.41;4942896;28;118059;-62
2022/05/11 12:31:30;;;;;;;;;;;;;;;37.05;22.42;100095.75;4961609;28;126937;-62
2022/05/11 12:33:55;;;;;;;;;;;;;;;37.23;21.97;100109.13;4960945;28;125092;-62
2022/05/11 12:36:38;;;;;;;;;;;;;;;37.40;21.97;100097.66;4962862;28;115859;-62
2022/05/11 12:39:04;;;;;;;;;;;;;;;37.08;22.53;100094.81;4958670;28;98518;-61
2022/05/11 12:41:30;;;;;;;;;;;;;;;36.71;22.60;100093.78;4943073;28;98873;-62
2022/05/11 12:44:04;;;;;;;;;;;;;;;36.40;22.57;100101.28;4957381;28;127138;-62
2022/05/11 12:46:30;;;;;;;;;;;;;;;35.75;22.95;100103.34;4957939;28;97989;-62
2022/05/11 12:49:03;;;;;;;;;;;;;;;35.37;23.26;100092.91;4944009;28;99575;-62
2022/05/11 12:51:31;;;;;;;;;;;;;;;35.31;23.21;100094.66;4942982;28;123973;-61
2022/05/11 12:53:58;;;;;;;;;;;;;;;35.06;23.23;100094.63;4959023;28;118986;-62
2022/05/11 12:56:27;;;;;;;;;;;;;;;34.90;23.92;100087.84;4962822;28;98006;-62
2022/05/11 12:58:57;;;;;;;;;;;;;;;34.78;23.95;100079.38;4960830;28;98821;-62
2022/05/11 13:01:25;;;;;;;;;;;;;;;35.20;23.78;100071.00;4962212;28;98423;-62
2022/05/11 13:03:52;;;;;;;;;;;;;;;35.64;23.58;100072.84;4955908;28;115112;-62
2022/05/11 13:06:37;;;;;;;;;;;;;;;35.87;23.14;100066.13;4956436;28;98094;-62
2022/05/11 13:09:30;;;;;;;;;;;;;;;35.79;23.17;100069.59;4959655;28;98484;-62
2022/05/11 13:11:56;;;;;;;;;;;;;;;35.85;23.46;100065.78;4966033;28;126799;-62
2022/05/11 13:14:26;;;;;;;;;;;;;;;36.22;23.00;100074.59;4938901;28;125461;-62
2022/05/11 13:16:53;;;;;;;;;;;;;;;36.09;23.03;100057.81;4941338;28;113579;-62
2022/05/11 13:19:30;;;;;;;;;;;;;;;36.20;22.95;100079.91;4961460;28;124490;-62
2022/05/11 13:21:57;;;;;;;;;;;;;;;36.18;23.30;100068.34;4961535;28;98554;-62
2022/05/11 13:24:38;;;;;;;;;;;;;;;36.25;22.92;100068.09;4958734;28;121574;-61